createdAt,value
2019-02-07T00:18:16.037Z,6.20
2019-02-07T00:20:42.983Z,6.20
2019-02-07T00:23:09.363Z,5.70
2019-02-07T00:25:35.730Z,7.30
2019-02-07T00:28:01.992Z,6.20
2019-02-07T00:30:28.250Z,6.60
2019-02-07T00:32:54.745Z,6.10
2019-02-07T00:35:21.345Z,6.10
2019-02-07T00:37:47.607Z,6.30
2019-02-07T00:40:14.596Z,6.10
2019-02-07T00:42:40.870Z,6.10
2019-02-07T00:45:08.163Z,6.10
2019-02-07T00:47:35.507Z,6.10
2019-02-07T00:50:02.598Z,6.10
2019-02-07T00:52:28.791Z,6.10
2019-02-07T00:54:55.960Z,6.10
2019-02-07T00:57:24.253Z,6.10
2019-02-07T00:59:50.623Z,6.00
2019-02-07T01:02:17.718Z,6.10
2019-02-07T01:04:44.773Z,6.10
2019-02-07T01:07:11.117Z,6.10
2019-02-07T01:09:38.235Z,6.10
2019-02-07T01:12:04.488Z,6.10
2019-02-07T01:14:30.704Z,7.20
2019-02-07T01:16:56.936Z,6.20
2019-02-07T01:19:23.288Z,6.10
2019-02-07T01:21:50.570Z,6.10
2019-02-07T01:24:17.599Z,6.10
2019-02-07T01:26:43.982Z,6.30
2019-02-07T01:29:10.943Z,6.20
2019-02-07T01:31:37.883Z,6.20
2019-02-07T01:34:04.088Z,6.80
2019-02-07T01:36:30.322Z,6.10
2019-02-07T01:38:56.646Z,7.20
2019-02-07T01:41:22.942Z,6.10
2019-02-07T01:43:49.226Z,5.80
2019-02-07T01:46:15.396Z,6.20
2019-02-07T01:48:41.920Z,6.10
2019-02-07T01:51:08.999Z,6.10
2019-02-07T01:53:35.333Z,6.30
2019-02-07T01:56:01.638Z,6.20
2019-02-07T01:58:27.947Z,6.70
2019-02-07T02:00:54.370Z,6.20
2019-02-07T02:03:20.708Z,6.10
2019-02-07T02:05:47.085Z,6.10
2019-02-07T02:08:13.347Z,6.20
2019-02-07T02:10:40.260Z,6.20
2019-02-07T02:13:06.521Z,6.10
2019-02-07T02:15:32.699Z,6.20
2019-02-07T02:17:58.943Z,6.20
2019-02-07T02:20:25.858Z,6.30
2019-02-07T02:22:52.939Z,6.50
2019-02-07T02:25:19.128Z,6.30
2019-02-07T02:27:45.386Z,6.30
2019-02-07T02:30:11.679Z,6.30
2019-02-07T02:32:37.850Z,6.30
2019-02-07T02:35:04.177Z,6.30
2019-02-07T02:37:31.147Z,5.30
2019-02-07T02:39:57.387Z,5.80
2019-02-07T02:42:23.735Z,5.70
2019-02-07T02:47:24.190Z,6.30
2019-02-07T02:49:50.509Z,7.00
2019-02-07T02:52:16.885Z,6.40
2019-02-07T02:54:43.169Z,7.10
2019-02-07T02:57:10.106Z,6.40
2019-02-07T02:59:36.417Z,6.30
2019-02-07T03:02:02.660Z,6.30
2019-02-07T03:04:30.528Z,6.40
2019-02-07T03:06:58.544Z,6.40
2019-02-07T03:09:25.863Z,7.40
2019-02-07T03:11:55.188Z,6.30
2019-02-07T03:14:22.273Z,6.40
2019-02-07T03:16:48.478Z,6.30
2019-02-07T03:19:14.754Z,6.30
2019-02-07T03:21:41.718Z,6.40
2019-02-07T03:24:08.689Z,6.40
2019-02-07T03:26:35.153Z,6.00
2019-02-07T03:29:02.472Z,5.80
2019-02-07T03:31:28.677Z,6.40
2019-02-07T03:33:55.035Z,6.40
2019-02-07T03:36:22.020Z,6.30
2019-02-07T03:38:48.325Z,6.30
2019-02-07T03:41:15.367Z,6.40
2019-02-07T03:43:41.676Z,6.20
2019-02-07T03:46:08.796Z,6.40
2019-02-07T03:48:35.028Z,6.40
2019-02-07T03:51:01.171Z,6.40
2019-02-07T03:53:28.870Z,6.50
2019-02-07T03:55:55.128Z,6.40
2019-02-07T03:58:22.090Z,6.50
2019-02-07T04:00:48.539Z,6.40
2019-02-07T04:03:14.836Z,6.40
2019-02-07T04:05:41.152Z,6.40
2019-02-07T04:08:07.459Z,6.10
2019-02-07T04:10:33.779Z,6.40
2019-02-07T04:12:59.976Z,5.70
2019-02-07T04:15:26.252Z,6.40
2019-02-07T04:17:53.241Z,6.40
2019-02-07T04:20:19.455Z,6.30
2019-02-07T04:22:45.740Z,6.40
2019-02-07T04:25:12.022Z,6.40
2019-02-07T04:27:38.331Z,6.70
2019-02-07T04:30:04.699Z,6.20
2019-02-07T04:32:30.924Z,6.40
2019-02-07T04:34:57.146Z,6.40
2019-02-07T04:37:23.503Z,7.30
2019-02-07T04:39:50.482Z,6.40
2019-02-07T04:42:17.433Z,6.40
2019-02-07T04:44:43.614Z,6.40
2019-02-07T04:47:09.918Z,6.40
2019-02-07T04:49:36.134Z,6.40
2019-02-07T04:52:02.497Z,6.40
2019-02-07T04:54:28.859Z,6.20
2019-02-07T04:56:55.228Z,6.50
2019-02-07T04:59:21.470Z,6.50
2019-02-07T05:01:47.627Z,5.30
2019-02-07T05:04:13.871Z,6.60
2019-02-07T05:06:40.072Z,7.00
2019-02-07T05:09:07.871Z,6.50
2019-02-07T05:11:34.225Z,6.50
2019-02-07T05:14:00.403Z,6.50
2019-02-07T05:16:38.873Z,6.50
2019-02-07T05:18:52.974Z,6.50
2019-02-07T05:21:19.429Z,7.00
2019-02-07T05:23:46.657Z,6.90
2019-02-07T05:26:12.886Z,6.50
2019-02-07T05:28:39.121Z,6.50
2019-02-07T05:31:05.279Z,6.60
2019-02-07T05:33:31.457Z,6.60
2019-02-07T05:35:57.609Z,6.80
2019-02-07T05:38:23.890Z,6.50
2019-02-07T05:40:50.127Z,5.60
2019-02-07T05:43:16.969Z,6.70
2019-02-07T05:45:43.274Z,7.30
2019-02-07T05:48:10.605Z,6.60
2019-02-07T05:50:36.645Z,6.70
2019-02-07T05:53:02.857Z,6.60
2019-02-07T05:55:28.972Z,6.60
2019-02-07T05:57:55.161Z,6.60
2019-02-07T06:00:21.342Z,6.60
2019-02-07T06:02:48.267Z,6.70
2019-02-07T06:05:14.677Z,6.70
2019-02-07T06:07:41.676Z,6.70
2019-02-07T06:10:07.901Z,6.60
2019-02-07T06:12:34.075Z,6.70
2019-02-07T06:15:00.340Z,6.60
2019-02-07T06:17:26.407Z,6.60
2019-02-07T06:19:52.922Z,6.60
2019-02-07T06:22:19.106Z,6.60
2019-02-07T06:24:45.286Z,6.60
2019-02-07T06:27:12.251Z,6.60
2019-02-07T06:29:40.442Z,6.70
2019-02-07T06:32:06.944Z,6.70
2019-02-07T06:34:33.080Z,6.70
2019-02-07T06:36:59.271Z,6.50
2019-02-07T06:39:28.460Z,6.60
2019-02-07T06:41:51.753Z,6.60
2019-02-07T06:44:18.577Z,6.70
2019-02-07T06:46:45.465Z,6.80
2019-02-07T06:49:11.633Z,6.80
2019-02-07T06:51:37.774Z,6.80
2019-02-07T06:54:04.024Z,7.70
2019-02-07T06:56:30.220Z,7.30
2019-02-07T06:58:56.429Z,6.80
2019-02-07T07:01:22.474Z,6.80
2019-02-07T07:03:49.124Z,6.90
2019-02-07T07:06:15.455Z,6.60
2019-02-07T07:08:41.635Z,6.60
2019-02-07T07:11:07.872Z,7.10
2019-02-07T07:13:34.278Z,7.10
2019-02-07T07:16:01.254Z,7.10
2019-02-07T07:18:28.223Z,7.20
2019-02-07T07:20:54.547Z,7.10
2019-02-07T07:23:21.640Z,7.20
2019-02-07T07:25:47.825Z,7.10
2019-02-07T07:28:14.776Z,7.30
2019-02-07T07:30:40.998Z,7.20
2019-02-07T07:33:07.110Z,7.10
2019-02-07T07:35:33.333Z,7.20
2019-02-07T07:37:59.544Z,6.50
2019-02-07T07:40:25.729Z,7.30
2019-02-07T07:42:51.942Z,7.30
2019-02-07T07:45:18.117Z,7.30
2019-02-07T07:47:44.270Z,7.40
2019-02-07T07:50:10.532Z,6.10
2019-02-07T07:52:36.658Z,7.20
2019-02-07T07:57:36.427Z,7.30
2019-02-07T08:00:02.656Z,7.40
2019-02-07T08:02:34.332Z,7.50
2019-02-07T08:05:00.690Z,8.00
2019-02-07T08:07:26.914Z,7.50
2019-02-07T08:09:53.056Z,7.50
2019-02-07T08:12:21.132Z,7.50
2019-02-07T08:14:49.327Z,7.60
2019-02-07T08:17:15.545Z,7.20
2019-02-07T08:19:42.137Z,7.60
2019-02-07T08:22:09.868Z,7.60
2019-02-07T08:24:39.863Z,7.60
2019-02-07T08:27:06.907Z,7.60
2019-02-07T08:29:34.818Z,7.60
2019-02-07T08:32:02.079Z,7.70
2019-02-07T08:34:31.368Z,7.70
2019-02-07T08:36:59.213Z,7.70
2019-02-07T08:39:29.621Z,7.70
2019-02-07T08:41:59.514Z,8.30
2019-02-07T08:44:25.774Z,7.70
2019-02-07T08:46:51.889Z,7.80
2019-02-07T08:49:18.036Z,7.80
2019-02-07T08:51:44.129Z,7.80
2019-02-07T08:54:12.150Z,7.70
2019-02-07T08:59:28.469Z,8.00
2019-02-07T09:01:54.765Z,7.80
2019-02-07T09:04:21.671Z,7.80
2019-02-07T09:06:47.797Z,7.90
2019-02-07T09:09:13.870Z,7.90
2019-02-07T09:14:13.139Z,8.00
2019-02-07T09:19:16.712Z,8.10
2019-02-07T09:21:42.921Z,8.20
2019-02-07T09:24:09.882Z,8.30
2019-02-07T09:26:36.133Z,8.10
2019-02-07T09:29:02.963Z,8.40
2019-02-07T09:31:29.978Z,8.40
2019-02-07T09:39:43.327Z,8.60
2019-02-07T09:42:09.526Z,9.40
2019-02-07T09:44:36.759Z,8.70
2019-02-07T09:52:48.071Z,8.70
2019-02-07T09:55:14.311Z,8.60
2019-02-07T10:23:32.944Z,8.90
2019-02-07T10:28:47.916Z,9.70
2019-02-07T11:30:03.075Z,9.30
2019-02-07T11:35:04.636Z,9.60
2019-02-07T11:37:32.080Z,8.60
2019-02-07T11:40:02.777Z,9.60
2019-02-07T11:42:30.641Z,9.60
2019-02-07T11:44:57.051Z,9.50
2019-02-07T11:47:23.241Z,9.40
2019-02-07T11:49:49.770Z,9.40
2019-02-07T11:52:17.631Z,9.60
2019-02-07T11:54:43.777Z,9.50
2019-02-07T12:00:17.291Z,9.70
2019-02-07T12:02:44.225Z,9.80
2019-02-07T12:07:43.746Z,9.90
2019-02-07T12:10:09.859Z,9.90
2019-02-07T12:12:36.217Z,10.10
2019-02-07T12:15:03.159Z,10.20
2019-02-07T12:22:49.341Z,10.20
2019-02-07T12:25:15.510Z,10.30
2019-02-07T12:27:44.660Z,10.40
2019-02-07T12:30:10.928Z,9.50
2019-02-07T12:32:37.077Z,9.40
2019-02-07T12:35:03.354Z,10.30
2019-02-07T12:37:29.613Z,10.40
2019-02-07T12:39:57.025Z,10.30
2019-02-07T12:45:04.396Z,10.20
2019-02-07T12:47:30.590Z,10.20
2019-02-07T12:49:56.677Z,10.50
2019-02-07T12:52:22.853Z,10.20
2019-02-07T12:54:49.070Z,10.00
2019-02-07T12:57:16.845Z,10.10
2019-02-07T12:59:46.973Z,9.90
2019-02-07T13:02:13.347Z,9.70
2019-02-07T13:04:42.500Z,10.00
2019-02-07T13:07:10.918Z,10.00
2019-02-07T13:09:38.000Z,10.30
2019-02-07T13:12:04.282Z,9.80
2019-02-07T13:17:02.569Z,9.70
2019-02-07T13:19:39.950Z,9.80
2019-02-07T13:21:57.836Z,9.80
2019-02-07T13:24:29.266Z,10.40
2019-02-07T13:26:55.467Z,9.70
2019-02-07T13:29:22.307Z,9.70
2019-02-07T13:31:49.161Z,9.70
2019-02-07T13:34:16.156Z,9.70
2019-02-07T13:36:44.249Z,9.90
2019-02-07T13:39:11.436Z,9.80
2019-02-07T13:41:37.799Z,9.90
2019-02-07T13:44:04.693Z,10.00
2019-02-07T13:46:31.653Z,9.80
2019-02-07T13:48:58.595Z,9.80
2019-02-07T13:51:24.708Z,9.80
2019-02-07T13:53:51.011Z,9.80
2019-02-07T13:56:17.851Z,9.80
2019-02-07T13:58:44.914Z,9.70
2019-02-07T14:01:11.931Z,9.80
2019-02-07T14:03:38.045Z,9.90
2019-02-07T14:06:05.937Z,9.90
2019-02-07T14:08:38.516Z,9.80
2019-02-07T14:19:07.685Z,9.80
2019-02-07T14:21:35.070Z,10.50
2019-02-07T14:24:02.389Z,10.80
2019-02-07T14:26:28.629Z,9.70
2019-02-07T14:28:56.133Z,9.70
2019-02-07T14:31:22.249Z,9.70
2019-02-07T14:33:49.759Z,9.70
2019-02-07T14:50:14.489Z,9.50
2019-02-07T14:52:33.332Z,9.50
2019-02-07T14:54:59.538Z,9.50
2019-02-07T14:57:30.580Z,9.50
2019-02-07T14:59:59.007Z,10.30
2019-02-07T15:02:25.477Z,8.90
2019-02-07T15:05:00.683Z,9.50
2019-02-07T15:07:27.055Z,10.10
2019-02-07T15:09:53.308Z,9.30
2019-02-07T15:12:19.476Z,9.10
2019-02-07T15:14:46.120Z,9.20
2019-02-07T15:17:18.676Z,8.80
2019-02-07T15:19:47.504Z,9.20
2019-02-07T15:22:15.797Z,9.20
2019-02-07T15:24:45.701Z,9.30
2019-02-07T15:27:12.951Z,9.20
2019-02-07T15:29:39.192Z,9.20
2019-02-07T15:32:05.548Z,9.80
2019-02-07T15:34:31.831Z,9.20
2019-02-07T15:36:58.889Z,9.20
2019-02-07T15:39:26.130Z,9.20
2019-02-07T15:41:52.417Z,9.20
2019-02-07T15:44:18.680Z,9.20
2019-02-07T15:46:44.852Z,9.10
2019-02-07T15:49:13.169Z,9.10
2019-02-07T15:51:40.210Z,9.50
2019-02-07T15:54:06.395Z,8.90
2019-02-07T15:56:32.721Z,9.20
2019-02-07T15:58:58.908Z,9.80
2019-02-07T16:01:28.452Z,8.80
2019-02-07T16:03:56.964Z,9.30
2019-02-07T16:06:23.492Z,9.00
2019-02-07T16:08:49.914Z,9.00
2019-02-07T16:11:16.150Z,9.00
2019-02-07T16:13:42.350Z,9.10
2019-02-07T16:16:10.579Z,8.90
2019-02-07T16:18:41.743Z,9.00
2019-02-07T16:21:09.638Z,8.90
2019-02-07T16:23:36.601Z,8.90
2019-02-07T16:26:02.935Z,9.00
2019-02-07T16:28:29.930Z,8.90
2019-02-07T16:30:57.367Z,8.90
2019-02-07T16:33:35.905Z,8.90
2019-02-07T16:36:07.330Z,8.90
2019-02-07T16:38:33.481Z,8.00
2019-02-07T16:40:59.788Z,9.10
2019-02-07T16:43:25.986Z,8.90
2019-02-07T16:59:31.275Z,8.80
2019-02-07T17:02:02.891Z,8.80
2019-02-07T17:04:38.356Z,8.80
2019-02-07T17:07:10.590Z,8.80
2019-02-07T17:39:40.547Z,6.90
2019-02-07T17:56:02.733Z,6.90
2019-02-07T17:58:29.010Z,6.90
2019-02-07T18:00:59.709Z,7.00
2019-02-07T18:08:44.620Z,7.30
2019-02-07T18:11:11.184Z,6.70
2019-02-07T18:21:45.255Z,6.60
2019-02-07T18:52:50.788Z,6.40
2019-02-07T18:55:17.508Z,6.30
2019-02-07T18:57:44.883Z,6.20
2019-02-07T19:00:17.655Z,6.30
2019-02-07T19:02:44.072Z,6.30
2019-02-07T19:05:10.413Z,6.30
2019-02-07T19:15:40.918Z,6.40
2019-02-07T19:18:16.253Z,6.10
2019-02-07T19:20:46.978Z,6.40
2019-02-07T19:28:42.411Z,6.40
2019-02-07T19:44:55.557Z,6.40
2019-02-07T19:47:22.036Z,5.90
2019-02-07T19:49:48.497Z,5.20
2019-02-07T19:52:14.762Z,7.40
2019-02-07T19:54:41.595Z,6.50
2019-02-07T19:57:14.188Z,6.50
2019-02-07T19:59:45.700Z,6.50
2019-02-07T20:02:12.219Z,6.50
2019-02-07T20:04:38.643Z,6.40
2019-02-07T20:09:35.886Z,7.00
2019-02-07T20:12:02.795Z,6.50
2019-02-07T20:14:29.364Z,6.50
2019-02-07T20:17:07.882Z,6.50
2019-02-07T20:20:21.741Z,6.00
2019-02-07T20:22:50.103Z,7.80
2019-02-07T20:25:20.360Z,6.60
2019-02-07T20:27:52.386Z,6.60
2019-02-07T20:30:19.249Z,7.20
2019-02-07T20:32:49.598Z,7.60
2019-02-07T20:35:20.500Z,6.50
2019-02-07T20:37:46.675Z,6.50
2019-02-07T20:45:57.757Z,6.60
2019-02-07T20:48:24.027Z,6.40
2019-02-07T20:50:51.213Z,6.40
2019-02-07T20:53:44.845Z,6.50
2019-02-07T21:01:39.442Z,6.00
2019-02-07T21:04:05.739Z,6.50
2019-02-07T21:06:32.235Z,6.50
2019-02-07T21:08:58.500Z,6.50
2019-02-07T21:11:28.206Z,6.50
2019-02-07T21:16:29.034Z,6.40
2019-02-07T21:35:32.106Z,6.10
2019-02-07T21:43:29.217Z,6.10
2019-02-07T21:46:08.223Z,6.10
2019-02-07T21:48:38.784Z,6.00
2019-02-07T21:51:12.974Z,6.10
2019-02-07T21:53:40.616Z,6.10
2019-02-07T21:56:12.111Z,6.10
2019-02-07T21:58:42.247Z,6.10
2019-02-07T22:01:10.432Z,6.20
2019-02-07T22:03:39.264Z,6.40
2019-02-07T22:06:06.567Z,5.90
2019-02-07T22:08:33.411Z,6.20
2019-02-07T22:11:07.120Z,7.20
2019-02-07T22:13:38.026Z,6.30
2019-02-07T22:16:05.122Z,6.40
2019-02-07T22:21:03.991Z,6.90
2019-02-07T22:23:31.548Z,6.50
2019-02-07T22:25:57.762Z,6.50
2019-02-07T22:28:24.118Z,6.50
2019-02-07T22:30:51.562Z,6.60
2019-02-07T22:33:27.174Z,6.50
2019-02-07T22:35:53.509Z,6.60
2019-02-07T22:38:21.044Z,6.60
2019-02-07T22:40:48.865Z,6.10
2019-02-07T22:43:18.167Z,6.60
2019-02-07T22:45:44.576Z,6.60
2019-02-07T22:48:12.094Z,5.60
2019-02-07T22:50:39.431Z,6.60
2019-02-07T22:53:05.942Z,6.50
2019-02-07T22:55:32.575Z,6.60
2019-02-07T22:57:59.053Z,7.10
2019-02-07T23:00:27.281Z,6.40
2019-02-07T23:08:00.283Z,6.40
2019-02-07T23:16:02.309Z,6.50
2019-02-07T23:21:03.583Z,6.60
2019-02-07T23:23:31.932Z,7.10
2019-02-07T23:44:49.856Z,6.60
2019-02-07T23:50:06.435Z,6.60
2019-02-07T23:52:34.151Z,6.60
2019-02-07T23:55:03.053Z,6.50
2019-02-07T23:57:30.471Z,8.00
2019-02-07T23:59:57.871Z,6.60
